createdAt,value
2024-03-16T00:02:01.647Z,83.44
2024-03-16T00:04:34.293Z,83.55
2024-03-16T00:07:04.973Z,83.86
2024-03-16T00:09:34.979Z,83.55
2024-03-16T00:12:05.698Z,83.33
2024-03-16T00:14:35.868Z,83.46
2024-03-16T00:17:06.427Z,83.38
2024-03-16T00:19:39.058Z,83.58
2024-03-16T00:22:10.681Z,83.91
2024-03-16T00:24:40.665Z,83.63
2024-03-16T00:27:11.525Z,83.81
2024-03-16T00:29:41.368Z,83.27
2024-03-16T00:32:11.756Z,83.22
2024-03-16T00:34:44.377Z,82.41
2024-03-16T00:37:14.508Z,82.35
2024-03-16T00:39:44.372Z,82.15
2024-03-16T00:42:14.429Z,81.89
2024-03-16T00:44:44.255Z,81.76
2024-03-16T00:47:14.994Z,81.77
2024-03-16T00:49:47.521Z,81.72
2024-03-16T00:52:17.797Z,81.98
2024-03-16T00:54:48.151Z,81.96
2024-03-16T00:57:18.199Z,82.34
2024-03-16T00:59:48.051Z,82.32
2024-03-16T01:02:19.223Z,82.44
2024-03-16T01:04:51.705Z,82.41
2024-03-16T01:07:21.903Z,81.97
2024-03-16T01:09:52.265Z,81.66
2024-03-16T01:12:22.260Z,82.58
2024-03-16T01:14:52.146Z,81.50
2024-03-16T01:17:22.549Z,81.66
2024-03-16T01:19:56.167Z,81.95
2024-03-16T01:22:26.023Z,81.37
2024-03-16T01:24:56.242Z,81.48
2024-03-16T01:27:26.347Z,81.54
2024-03-16T01:29:56.259Z,82.14
2024-03-16T01:32:26.254Z,82.45
2024-03-16T01:34:59.102Z,82.20
2024-03-16T01:37:31.120Z,83.49
2024-03-16T01:40:01.964Z,83.61
2024-03-16T01:42:32.131Z,83.63
2024-03-16T01:45:11.440Z,84.09
2024-03-16T01:47:41.931Z,83.63
2024-03-16T01:50:14.606Z,82.64
2024-03-16T01:52:44.460Z,82.86
2024-03-16T01:55:14.935Z,81.69
2024-03-16T01:57:44.983Z,81.14
2024-03-16T02:00:16.587Z,81.17
2024-03-16T02:02:46.509Z,80.56
2024-03-16T02:05:18.935Z,80.38
2024-03-16T02:07:49.123Z,80.60
2024-03-16T02:10:19.484Z,80.66
2024-03-16T02:12:50.258Z,81.16
2024-03-16T02:15:20.912Z,80.25
2024-03-16T02:17:51.812Z,80.13
2024-03-16T02:20:25.294Z,80.63
2024-03-16T02:22:57.763Z,80.77
2024-03-16T02:25:27.796Z,81.78
2024-03-16T02:27:58.041Z,81.39
2024-03-16T02:30:27.996Z,81.04
2024-03-16T02:32:58.053Z,80.82
2024-03-16T02:35:28.328Z,81.36
2024-03-16T02:38:00.842Z,81.89
2024-03-16T02:40:30.719Z,81.70
2024-03-16T02:43:01.184Z,81.89
2024-03-16T02:45:31.123Z,80.93
2024-03-16T02:48:01.664Z,81.69
2024-03-16T02:50:31.656Z,82.20
2024-03-16T02:53:05.112Z,82.68
2024-03-16T02:55:35.171Z,82.00
2024-03-16T02:58:06.260Z,82.08
2024-03-16T03:00:36.546Z,82.47
2024-03-16T03:03:08.434Z,82.48
2024-03-16T03:05:38.429Z,81.91
2024-03-16T03:08:11.561Z,81.73
2024-03-16T03:10:42.767Z,82.04
2024-03-16T03:13:12.764Z,82.01
2024-03-16T03:15:43.111Z,82.12
2024-03-16T03:18:13.082Z,82.81
2024-03-16T03:20:42.914Z,82.54
2024-03-16T03:23:15.410Z,82.69
2024-03-16T03:25:46.303Z,82.76
2024-03-16T03:28:16.436Z,83.13
2024-03-16T03:30:46.596Z,82.83
2024-03-16T03:33:16.696Z,83.54
2024-03-16T03:35:46.528Z,82.23
2024-03-16T03:38:19.184Z,81.76
2024-03-16T03:40:49.220Z,81.96
2024-03-16T03:43:23.222Z,81.89
2024-03-16T03:45:56.494Z,81.67
2024-03-16T03:48:37.334Z,82.29
2024-03-16T03:51:07.923Z,81.61
2024-03-16T03:53:40.575Z,81.90
2024-03-16T03:56:10.602Z,81.51
2024-03-16T03:58:40.467Z,81.50
2024-03-16T04:01:10.394Z,81.35
2024-03-16T04:03:40.736Z,80.74
2024-03-16T04:06:10.790Z,81.06
2024-03-16T04:08:43.264Z,80.95
2024-03-16T04:11:13.422Z,81.09
2024-03-16T04:13:43.252Z,80.99
2024-03-16T04:16:16.132Z,80.50
2024-03-16T04:18:46.244Z,81.10
2024-03-16T04:21:17.254Z,80.69
2024-03-16T04:23:50.709Z,80.13
2024-03-16T04:26:20.525Z,79.96
2024-03-16T04:28:51.401Z,79.90
2024-03-16T04:31:21.235Z,80.10
2024-03-16T04:33:52.663Z,80.69
2024-03-16T04:36:24.179Z,80.42
2024-03-16T04:38:56.836Z,80.30
2024-03-16T04:41:26.910Z,80.60
2024-03-16T04:43:57.135Z,80.32
2024-03-16T04:46:30.223Z,79.94
2024-03-16T04:49:01.314Z,79.81
2024-03-16T04:51:31.569Z,79.77
2024-03-16T04:54:04.905Z,79.70
2024-03-16T04:56:35.014Z,79.67
2024-03-16T04:59:04.971Z,79.43
2024-03-16T05:01:34.935Z,79.20
2024-03-16T05:04:05.178Z,79.29
2024-03-16T05:06:35.562Z,79.30
2024-03-16T05:09:10.762Z,79.27
2024-03-16T05:11:41.215Z,79.65
2024-03-16T05:14:11.375Z,80.13
2024-03-16T05:16:43.022Z,80.25
2024-03-16T05:19:13.120Z,80.20
2024-03-16T05:21:43.850Z,80.47
2024-03-16T05:24:16.607Z,80.95
2024-03-16T05:26:46.864Z,81.10
2024-03-16T05:29:16.930Z,81.12
2024-03-16T05:32:00.734Z,81.34
2024-03-16T05:34:30.667Z,81.43
2024-03-16T05:37:00.788Z,80.90
2024-03-16T05:39:33.537Z,80.00
2024-03-16T05:42:05.179Z,79.95
2024-03-16T05:44:36.815Z,79.61
2024-03-16T05:47:08.267Z,79.40
2024-03-16T05:49:40.810Z,79.23
2024-03-16T05:52:10.974Z,79.06
2024-03-16T05:54:43.623Z,79.59
2024-03-16T05:57:13.675Z,79.16
2024-03-16T05:59:43.545Z,79.53
2024-03-16T06:02:13.588Z,80.04
2024-03-16T06:04:43.606Z,80.48
2024-03-16T06:07:13.756Z,82.44
2024-03-16T06:09:49.929Z,83.77
2024-03-16T06:12:19.849Z,85.43
2024-03-16T06:14:52.197Z,86.87
2024-03-16T06:17:22.512Z,87.39
2024-03-16T06:19:55.143Z,88.01
2024-03-16T06:22:25.904Z,87.60
2024-03-16T06:25:00.880Z,87.30
2024-03-16T06:27:30.780Z,87.80
2024-03-16T06:30:02.470Z,87.20
2024-03-16T06:32:35.710Z,87.63
2024-03-16T06:35:05.686Z,87.41
2024-03-16T06:37:38.281Z,86.93
2024-03-16T06:40:12.393Z,87.01
2024-03-16T06:42:42.310Z,86.47
2024-03-16T06:45:12.898Z,86.70
2024-03-16T06:47:43.016Z,86.44
2024-03-16T06:50:14.354Z,86.20
2024-03-16T06:52:44.273Z,85.84
2024-03-16T06:55:19.499Z,86.20
2024-03-16T06:57:50.148Z,86.16
2024-03-16T07:00:20.262Z,85.83
2024-03-16T07:02:50.121Z,86.05
2024-03-16T07:05:19.893Z,85.41
2024-03-16T07:07:49.951Z,85.18
2024-03-16T07:10:22.372Z,85.34
2024-03-16T07:12:52.480Z,85.38
2024-03-16T07:15:22.649Z,85.33
2024-03-16T07:17:52.631Z,84.97
2024-03-16T07:20:22.528Z,85.31
2024-03-16T07:22:55.319Z,85.42
2024-03-16T07:25:28.545Z,85.81
2024-03-16T07:27:58.417Z,85.66
2024-03-16T07:30:28.688Z,85.66
2024-03-16T07:32:58.662Z,86.23
2024-03-16T07:35:29.359Z,86.53
2024-03-16T07:37:59.594Z,87.54
2024-03-16T07:40:33.197Z,87.89
2024-03-16T07:43:03.702Z,88.90
2024-03-16T07:45:34.191Z,89.56
2024-03-16T07:48:04.314Z,90.27
2024-03-16T07:50:34.485Z,91.32
2024-03-16T07:53:04.719Z,93.49
2024-03-16T07:55:37.544Z,92.58
2024-03-16T07:58:09.300Z,91.30
2024-03-16T08:00:41.255Z,92.02
2024-03-16T08:03:11.160Z,92.43
2024-03-16T08:05:41.812Z,92.61
2024-03-16T08:08:11.711Z,92.29
2024-03-16T08:10:44.209Z,92.18
2024-03-16T08:13:14.165Z,91.68
2024-03-16T08:15:44.123Z,91.21
2024-03-16T08:18:14.131Z,90.23
2024-03-16T08:20:44.102Z,89.85
2024-03-16T08:23:14.012Z,88.79
2024-03-16T08:25:48.180Z,88.65
2024-03-16T08:28:18.594Z,88.32
2024-03-16T08:30:48.523Z,89.12
2024-03-16T08:33:18.465Z,88.99
2024-03-16T08:35:48.709Z,87.85
2024-03-16T08:38:18.588Z,86.97
2024-03-16T08:40:51.125Z,87.65
2024-03-16T08:43:21.456Z,87.69
2024-03-16T08:45:51.355Z,87.30
2024-03-16T08:48:21.267Z,87.53
2024-03-16T08:50:51.177Z,87.52
2024-03-16T08:53:21.421Z,87.58
2024-03-16T08:55:58.077Z,86.29
2024-03-16T08:58:28.563Z,85.02
2024-03-16T09:00:59.888Z,84.38
2024-03-16T09:03:30.031Z,84.90
2024-03-16T09:06:00.351Z,84.88
2024-03-16T09:08:31.293Z,83.33
2024-03-16T09:11:03.803Z,83.12
2024-03-16T09:13:35.197Z,83.26
2024-03-16T09:16:07.559Z,83.88
2024-03-16T09:18:38.107Z,85.55
2024-03-16T09:21:09.500Z,84.97
2024-03-16T09:23:39.393Z,85.54
2024-03-16T09:26:11.947Z,84.74
2024-03-16T09:28:41.755Z,85.76
2024-03-16T09:31:11.848Z,87.28
2024-03-16T09:33:41.966Z,88.57
2024-03-16T09:36:12.231Z,88.54
2024-03-16T09:38:42.259Z,88.22
2024-03-16T09:41:21.786Z,88.36
